createdAt,value
2017-07-01T00:00:51.034Z,998.5
2017-07-01T00:01:51.018Z,998.55
2017-07-01T00:02:51.002Z,998.56
2017-07-01T00:03:50.985Z,998.5
2017-07-01T00:04:50.972Z,998.51
2017-07-01T00:05:50.954Z,998.54
2017-07-01T00:06:50.938Z,998.54
2017-07-01T00:07:50.924Z,998.57
2017-07-01T00:08:50.913Z,998.57
2017-07-01T00:09:50.895Z,998.52
2017-07-01T00:10:50.878Z,998.56
2017-07-01T00:11:50.868Z,998.54
2017-07-01T00:12:50.856Z,998.58
2017-07-01T00:13:50.837Z,998.55
2017-07-01T00:14:50.826Z,998.56
2017-07-01T00:15:50.808Z,998.55
2017-07-01T00:16:50.794Z,998.55
2017-07-01T00:17:50.774Z,998.55
2017-07-01T00:18:50.765Z,998.57
2017-07-01T00:19:50.742Z,998.56
2017-07-01T00:20:50.725Z,998.55
2017-07-01T00:21:50.712Z,998.56
2017-07-01T00:22:50.694Z,998.56
2017-07-01T00:23:50.681Z,998.57
2017-07-01T00:24:50.667Z,998.51
2017-07-01T00:25:50.658Z,998.55
2017-07-01T00:26:50.636Z,998.55
2017-07-01T00:27:50.628Z,998.53
2017-07-01T00:28:50.607Z,998.52
2017-07-01T00:29:50.590Z,998.55
2017-07-01T00:30:50.577Z,998.53
2017-07-01T00:31:50.613Z,998.53
2017-07-01T00:32:50.546Z,998.54
2017-07-01T00:33:50.536Z,998.55
2017-07-01T00:34:50.515Z,998.57
2017-07-01T00:35:50.554Z,998.53
2017-07-01T00:36:50.487Z,998.53
2017-07-01T00:37:50.475Z,998.54
2017-07-01T00:38:50.456Z,998.55
2017-07-01T00:39:50.444Z,998.56
2017-07-01T00:40:50.423Z,998.51
2017-07-01T00:41:50.408Z,998.57
2017-07-01T00:42:50.394Z,998.55
2017-07-01T00:43:50.381Z,998.57
2017-07-01T00:44:50.362Z,998.54
2017-07-01T00:45:50.561Z,998.52
2017-07-01T00:46:50.330Z,998.52
2017-07-01T00:47:50.315Z,998.53
2017-07-01T00:48:50.300Z,998.54
2017-07-01T00:49:50.283Z,998.57
2017-07-01T00:50:50.270Z,998.52
2017-07-01T00:51:50.249Z,998.52
2017-07-01T00:52:50.239Z,998.51
2017-07-01T00:53:50.222Z,998.51
2017-07-01T00:54:50.208Z,998.49
2017-07-01T00:55:50.190Z,998.49
2017-07-01T00:56:50.175Z,998.49
2017-07-01T00:57:50.163Z,998.49
2017-07-01T00:58:50.147Z,998.44
2017-07-01T00:59:50.133Z,998.45
2017-07-01T01:00:50.118Z,998.41
2017-07-01T01:01:50.096Z,998.43
2017-07-01T01:02:50.081Z,998.4
2017-07-01T01:03:50.071Z,998.37
2017-07-01T01:04:50.050Z,998.39
2017-07-01T01:05:50.041Z,998.4
2017-07-01T01:06:50.021Z,998.39
2017-07-01T01:07:50.012Z,998.38
2017-07-01T01:08:49.991Z,998.38
2017-07-01T01:09:49.976Z,998.39
2017-07-01T01:10:49.959Z,998.37
2017-07-01T01:11:49.948Z,998.38
2017-07-01T01:12:49.927Z,998.36
2017-07-01T01:13:49.911Z,998.4
2017-07-01T01:14:49.897Z,998.4
2017-07-01T01:15:49.880Z,998.38
2017-07-01T01:16:49.864Z,998.33
2017-07-01T01:17:49.849Z,998.33
2017-07-01T01:18:49.833Z,998.31
2017-07-01T01:19:49.818Z,998.34
2017-07-01T01:20:49.803Z,998.31
2017-07-01T01:21:49.787Z,998.34
2017-07-01T01:22:49.772Z,998.34
2017-07-01T01:23:49.760Z,998.31
2017-07-01T01:24:49.739Z,998.32
2017-07-01T01:25:49.729Z,998.3
2017-07-01T01:26:49.707Z,998.33
2017-07-01T01:27:49.699Z,998.33
2017-07-01T01:28:49.676Z,998.29
2017-07-01T01:29:49.668Z,998.28
2017-07-01T01:30:49.647Z,998.29
2017-07-01T01:31:49.631Z,998.3
2017-07-01T01:32:49.620Z,998.3
2017-07-01T01:33:49.600Z,998.28
2017-07-01T01:34:49.589Z,998.29
2017-07-01T01:35:49.570Z,998.27
2017-07-01T01:36:49.550Z,998.29
2017-07-01T01:37:49.537Z,998.24
2017-07-01T01:38:49.520Z,998.25
2017-07-01T01:39:49.509Z,998.29
2017-07-01T01:40:49.487Z,998.28
2017-07-01T01:41:49.473Z,998.25
2017-07-01T01:42:49.458Z,998.29
2017-07-01T01:43:49.447Z,998.23
2017-07-01T01:44:49.425Z,998.25
2017-07-01T01:45:49.421Z,998.22
2017-07-01T01:46:49.394Z,998.21
2017-07-01T01:47:49.378Z,998.21
2017-07-01T01:48:49.362Z,998.15
2017-07-01T01:49:49.349Z,998.11
2017-07-01T01:50:49.331Z,998.12
2017-07-01T01:51:49.321Z,998.05
2017-07-01T01:52:49.299Z,998.01
2017-07-01T01:53:49.286Z,998.01
2017-07-01T01:54:49.269Z,998.01
2017-07-01T01:55:49.259Z,997.91
2017-07-01T01:56:49.237Z,997.95
2017-07-01T01:57:49.219Z,997.87
2017-07-01T01:58:49.204Z,997.89
2017-07-01T01:59:49.188Z,997.87
2017-07-01T02:00:49.171Z,997.88
2017-07-01T02:01:49.154Z,997.87
2017-07-01T02:02:49.139Z,997.85
2017-07-01T02:03:49.120Z,997.85
2017-07-01T02:04:49.109Z,997.87
2017-07-01T02:05:49.093Z,997.88
2017-07-01T02:06:49.080Z,997.87
2017-07-01T02:07:49.055Z,997.87
2017-07-01T02:08:49.042Z,997.93
2017-07-01T02:09:49.027Z,997.88
2017-07-01T02:10:49.011Z,997.88
2017-07-01T02:11:48.990Z,997.85
2017-07-01T02:12:48.978Z,997.88
2017-07-01T02:13:48.958Z,997.92
2017-07-01T02:14:48.949Z,997.88
2017-07-01T02:15:48.928Z,997.86
2017-07-01T02:16:48.957Z,997.87
2017-07-01T02:17:48.899Z,997.87
2017-07-01T02:18:48.877Z,997.86
2017-07-01T02:19:48.863Z,997.84
2017-07-01T02:20:48.848Z,997.81
2017-07-01T02:21:48.831Z,997.84
2017-07-01T02:22:48.817Z,997.85
2017-07-01T02:23:48.797Z,997.87
2017-07-01T02:24:48.780Z,997.85
2017-07-01T02:25:48.765Z,997.89
2017-07-01T02:26:48.747Z,997.85
2017-07-01T02:27:48.735Z,997.91
2017-07-01T02:28:48.718Z,997.91
2017-07-01T02:29:48.705Z,997.87
2017-07-01T02:30:48.689Z,997.88
2017-07-01T02:31:48.667Z,997.89
2017-07-01T02:32:48.658Z,997.84
2017-07-01T02:33:48.639Z,997.87
2017-07-01T02:34:48.622Z,997.88
2017-07-01T02:35:48.610Z,997.88
2017-07-01T02:36:48.691Z,997.9
2017-07-01T02:37:48.578Z,997.89
2017-07-01T02:38:48.668Z,997.94
2017-07-01T02:39:48.540Z,997.93
2017-07-01T02:40:48.561Z,997.97
2017-07-01T02:41:48.510Z,997.96
2017-07-01T02:42:48.497Z,997.98
2017-07-01T02:43:48.479Z,998
2017-07-01T02:44:48.459Z,997.95
2017-07-01T02:45:48.448Z,997.98
2017-07-01T02:46:48.428Z,997.99
2017-07-01T02:47:48.407Z,998.01
2017-07-01T02:48:48.399Z,998
2017-07-01T02:49:48.377Z,998.01
2017-07-01T02:50:48.358Z,998.02
2017-07-01T02:51:48.348Z,998.02
2017-07-01T02:52:48.330Z,998.01
2017-07-01T02:53:48.308Z,998.01
2017-07-01T02:54:48.342Z,997.97
2017-07-01T02:55:48.278Z,997.96
2017-07-01T02:56:48.313Z,997.96
2017-07-01T02:57:48.247Z,997.93
2017-07-01T02:58:48.278Z,997.91
2017-07-01T02:59:48.216Z,997.95
2017-07-01T03:00:48.202Z,997.9
2017-07-01T03:01:48.180Z,997.87
2017-07-01T03:02:48.169Z,997.86
2017-07-01T03:03:48.149Z,997.88
2017-07-01T03:04:48.130Z,997.88
2017-07-01T03:05:48.118Z,997.89
2017-07-01T03:06:48.103Z,997.92
2017-07-01T03:07:48.088Z,997.89
2017-07-01T03:08:48.070Z,997.91
2017-07-01T03:09:48.056Z,997.94
2017-07-01T03:10:48.034Z,997.91
2017-07-01T03:11:48.020Z,997.91
2017-07-01T03:12:48.001Z,997.9
2017-07-01T03:13:47.985Z,997.96
2017-07-01T03:14:47.967Z,997.94
2017-07-01T03:15:47.950Z,997.9
2017-07-01T03:16:47.940Z,997.82
2017-07-01T03:17:47.921Z,997.85
2017-07-01T03:18:47.911Z,997.83
2017-07-01T03:19:47.887Z,997.82
2017-07-01T03:20:47.870Z,997.83
2017-07-01T03:21:47.853Z,997.75
2017-07-01T03:22:47.836Z,997.79
2017-07-01T03:23:47.828Z,997.82
2017-07-01T03:24:47.809Z,997.81
2017-07-01T03:25:47.789Z,997.83
2017-07-01T03:26:47.780Z,997.76
2017-07-01T03:27:47.759Z,997.79
2017-07-01T03:28:47.739Z,997.81
2017-07-01T03:29:47.720Z,997.84
2017-07-01T03:30:47.710Z,997.8
2017-07-01T03:31:47.689Z,997.83
2017-07-01T03:32:47.675Z,997.81
2017-07-01T03:33:47.659Z,997.77
2017-07-01T03:34:47.642Z,997.75
2017-07-01T03:35:47.621Z,997.74
2017-07-01T03:36:47.602Z,997.76
2017-07-01T03:37:47.589Z,997.78
2017-07-01T03:38:47.573Z,997.8
2017-07-01T03:39:47.557Z,997.75
2017-07-01T03:40:47.538Z,997.78
2017-07-01T03:41:47.525Z,997.74
2017-07-01T03:42:47.509Z,997.79
2017-07-01T03:43:47.490Z,997.83
2017-07-01T03:44:47.479Z,997.8
2017-07-01T03:45:47.458Z,997.82
2017-07-01T03:46:47.441Z,997.83
2017-07-01T03:47:47.427Z,997.84
2017-07-01T03:48:47.408Z,997.84
2017-07-01T03:49:47.392Z,997.77
2017-07-01T03:50:47.377Z,997.85
2017-07-01T03:51:47.358Z,997.83
2017-07-01T03:52:47.339Z,997.82
2017-07-01T03:53:47.327Z,997.83
2017-07-01T03:54:47.308Z,997.87
2017-07-01T03:55:47.296Z,997.78
2017-07-01T03:56:47.279Z,997.81
2017-07-01T03:57:47.259Z,997.85
2017-07-01T03:58:47.246Z,997.83
2017-07-01T03:59:47.225Z,997.84
2017-07-01T04:00:47.209Z,997.84
2017-07-01T04:01:47.198Z,997.81
2017-07-01T04:02:47.176Z,997.83
2017-07-01T04:03:47.160Z,997.9
2017-07-01T04:04:47.152Z,997.88
2017-07-01T04:05:47.131Z,997.86
2017-07-01T04:06:47.110Z,997.83
2017-07-01T04:07:47.113Z,997.82
2017-07-01T04:08:47.081Z,997.77
2017-07-01T04:09:47.060Z,997.79
2017-07-01T04:10:47.051Z,997.75
2017-07-01T04:11:47.030Z,997.72
2017-07-01T04:12:47.019Z,997.77
2017-07-01T04:13:46.997Z,997.79
2017-07-01T04:14:46.982Z,997.75
2017-07-01T04:15:46.964Z,997.71
2017-07-01T04:16:46.944Z,997.7
2017-07-01T04:17:46.928Z,997.68
2017-07-01T04:18:46.915Z,997.72
2017-07-01T04:19:46.897Z,997.75
2017-07-01T04:20:46.879Z,997.71
2017-07-01T04:21:47.162Z,997.73
2017-07-01T04:22:46.846Z,997.71
2017-07-01T04:23:46.831Z,997.73
2017-07-01T04:24:46.819Z,997.69
2017-07-01T04:25:46.797Z,997.72
2017-07-01T04:26:46.780Z,997.67
2017-07-01T04:27:46.766Z,997.62
2017-07-01T04:28:46.748Z,997.65
2017-07-01T04:29:46.729Z,997.64
2017-07-01T04:30:46.717Z,997.62
2017-07-01T04:31:46.699Z,997.59
2017-07-01T04:32:46.680Z,997.64
2017-07-01T04:33:46.670Z,997.62
2017-07-01T04:34:46.648Z,997.65
2017-07-01T04:35:46.632Z,997.66
2017-07-01T04:36:46.622Z,997.6
2017-07-01T04:37:46.598Z,997.7
2017-07-01T04:38:46.578Z,997.63
2017-07-01T04:39:46.569Z,997.62
2017-07-01T04:40:46.552Z,997.71
2017-07-01T04:41:46.530Z,997.68
2017-07-01T04:42:46.520Z,997.72
2017-07-01T04:43:46.495Z,997.8
2017-07-01T04:44:46.481Z,997.74
2017-07-01T04:45:46.464Z,997.77
2017-07-01T04:46:46.451Z,997.82
2017-07-01T04:47:46.430Z,997.85
2017-07-01T04:48:46.418Z,997.82
2017-07-01T04:49:46.399Z,997.75
2017-07-01T04:50:46.379Z,997.76
2017-07-01T04:51:46.363Z,997.75
2017-07-01T04:52:46.348Z,997.76
2017-07-01T04:53:46.331Z,997.79
2017-07-01T04:54:46.316Z,997.75
2017-07-01T04:55:46.298Z,997.72
2017-07-01T04:56:46.283Z,997.75
2017-07-01T04:57:46.270Z,997.74
2017-07-01T04:58:46.245Z,997.75
2017-07-01T04:59:46.232Z,997.76
2017-07-01T05:00:46.218Z,997.74
2017-07-01T05:01:46.200Z,997.71
2017-07-01T05:02:46.182Z,997.73
2017-07-01T05:03:46.173Z,997.79
2017-07-01T05:04:46.152Z,997.77
2017-07-01T05:05:46.141Z,997.76
2017-07-01T05:06:46.122Z,997.82
2017-07-01T05:07:46.100Z,997.78
2017-07-01T05:08:46.080Z,997.75
2017-07-01T05:09:46.068Z,997.82
2017-07-01T05:10:46.049Z,997.8
2017-07-01T05:11:46.039Z,997.8
2017-07-01T05:12:46.019Z,997.79
2017-07-01T05:13:46.005Z,997.81
2017-07-01T05:14:45.987Z,997.8
2017-07-01T05:15:45.972Z,997.89
2017-07-01T05:16:45.950Z,997.88
2017-07-01T05:17:45.934Z,997.88
2017-07-01T05:18:45.923Z,997.88
2017-07-01T05:19:45.913Z,997.91
2017-07-01T05:20:45.892Z,997.87
2017-07-01T05:21:45.868Z,997.89
2017-07-01T05:22:45.851Z,997.9
2017-07-01T05:23:45.840Z,997.85
2017-07-01T05:24:45.822Z,997.91
2017-07-01T05:25:45.802Z,997.88
2017-07-01T05:26:45.791Z,997.86
2017-07-01T05:27:45.771Z,997.89
2017-07-01T05:28:45.757Z,997.88
2017-07-01T05:29:45.737Z,997.91
2017-07-01T05:30:45.722Z,997.99
2017-07-01T05:31:45.703Z,997.87
2017-07-01T05:32:45.695Z,997.97
2017-07-01T05:33:45.674Z,997.93
2017-07-01T05:34:45.654Z,997.95
2017-07-01T05:35:45.642Z,997.99
2017-07-01T05:36:45.623Z,998.01
2017-07-01T05:37:45.607Z,997.99
2017-07-01T05:38:45.594Z,997.99
2017-07-01T05:39:45.573Z,997.99
2017-07-01T05:40:45.566Z,997.98
2017-07-01T05:41:45.543Z,997.99
2017-07-01T05:42:45.525Z,998.01
2017-07-01T05:43:45.513Z,997.99
2017-07-01T05:44:45.494Z,998.04
2017-07-01T05:45:45.483Z,998
2017-07-01T05:46:45.463Z,998.02
2017-07-01T05:47:45.443Z,998
2017-07-01T05:48:45.429Z,997.99
2017-07-01T05:49:45.411Z,998.01
2017-07-01T05:50:45.391Z,998.05
2017-07-01T05:51:45.383Z,998.04
2017-07-01T05:52:45.364Z,998.06
2017-07-01T05:53:45.345Z,998.06
2017-07-01T05:54:45.328Z,998.07
2017-07-01T05:55:45.311Z,998.11
2017-07-01T05:56:45.303Z,998.13
2017-07-01T05:57:45.275Z,998.11
2017-07-01T05:58:45.262Z,998.1
2017-07-01T05:59:45.282Z,998.12
2017-07-01T06:00:45.235Z,998.13
2017-07-01T06:01:45.211Z,998.09
2017-07-01T06:02:45.197Z,998.12
2017-07-01T06:03:45.178Z,998.13
2017-07-01T06:04:45.171Z,998.07
2017-07-01T06:05:45.147Z,998.13
2017-07-01T06:06:45.130Z,998.14
2017-07-01T06:07:45.117Z,998.14
2017-07-01T06:08:45.102Z,998.15
2017-07-01T06:09:45.081Z,998.2
2017-07-01T06:10:45.073Z,998.22
2017-07-01T06:11:45.049Z,998.27
2017-07-01T06:12:45.039Z,998.26
2017-07-01T06:13:45.022Z,998.28
2017-07-01T06:14:44.999Z,998.27
2017-07-01T06:15:44.992Z,998.3
2017-07-01T06:16:44.970Z,998.32
2017-07-01T06:17:44.952Z,998.27
2017-07-01T06:18:44.947Z,998.32
2017-07-01T06:19:44.920Z,998.32
2017-07-01T06:20:44.911Z,998.35
2017-07-01T06:21:44.890Z,998.36
2017-07-01T06:22:44.869Z,998.38
2017-07-01T06:23:44.861Z,998.37
2017-07-01T06:24:44.842Z,998.35
2017-07-01T06:25:44.830Z,998.41
2017-07-01T06:26:44.810Z,998.35
2017-07-01T06:27:44.792Z,998.37
2017-07-01T06:28:44.774Z,998.4
2017-07-01T06:29:44.758Z,998.4
2017-07-01T06:30:44.748Z,998.46
2017-07-01T06:31:44.733Z,998.42
2017-07-01T06:32:44.706Z,998.44
2017-07-01T06:33:44.699Z,998.46
2017-07-01T06:34:44.676Z,998.5
2017-07-01T06:35:44.659Z,998.51
2017-07-01T06:36:44.646Z,998.52
2017-07-01T06:37:44.629Z,998.53
2017-07-01T06:38:44.613Z,998.5
2017-07-01T06:39:44.595Z,998.5
2017-07-01T06:40:44.581Z,998.51
2017-07-01T06:41:44.570Z,998.53
2017-07-01T06:42:44.549Z,998.54
2017-07-01T06:43:44.533Z,998.54
2017-07-01T06:44:44.529Z,998.51
2017-07-01T06:45:44.500Z,998.56
2017-07-01T06:46:44.488Z,998.54
2017-07-01T06:47:44.471Z,998.56
2017-07-01T06:48:44.452Z,998.52
2017-07-01T06:49:44.441Z,998.55
2017-07-01T06:50:44.420Z,998.57
2017-07-01T06:51:44.406Z,998.56
2017-07-01T06:52:44.395Z,998.58
2017-07-01T06:53:44.368Z,998.62
2017-07-01T06:54:44.359Z,998.62
2017-07-01T06:55:44.341Z,998.63
2017-07-01T06:56:44.329Z,998.67
2017-07-01T06:57:44.311Z,998.64
2017-07-01T06:58:44.299Z,998.69
2017-07-01T06:59:44.279Z,998.67
2017-07-01T07:00:44.259Z,998.7
2017-07-01T07:01:44.249Z,998.7
2017-07-01T07:02:44.278Z,998.72
2017-07-01T07:03:44.222Z,998.73
2017-07-01T07:04:44.205Z,998.68
2017-07-01T07:05:44.181Z,998.77
2017-07-01T07:06:44.173Z,998.76
2017-07-01T07:07:44.150Z,998.73
2017-07-01T07:08:44.139Z,998.71
2017-07-01T07:09:44.121Z,998.77
2017-07-01T07:10:44.099Z,998.71
2017-07-01T07:11:44.089Z,998.75
2017-07-01T07:12:44.069Z,998.76
2017-07-01T07:13:44.053Z,998.77
2017-07-01T07:14:44.038Z,998.75
2017-07-01T07:15:44.029Z,998.78
2017-07-01T07:16:44.010Z,998.8
2017-07-01T07:17:43.990Z,998.83
2017-07-01T07:18:43.976Z,998.82
2017-07-01T07:19:43.961Z,998.83
2017-07-01T07:20:43.942Z,998.84
2017-07-01T07:21:43.929Z,998.86
2017-07-01T07:22:43.910Z,998.87
2017-07-01T07:23:43.906Z,998.87
2017-07-01T07:24:43.880Z,998.86
2017-07-01T07:25:43.870Z,998.87
2017-07-01T07:26:43.848Z,998.95
2017-07-01T07:27:43.829Z,998.9
2017-07-01T07:28:43.820Z,998.89
2017-07-01T07:29:43.800Z,998.97
2017-07-01T07:30:43.789Z,998.93
2017-07-01T07:31:43.766Z,998.99
2017-07-01T07:32:43.760Z,998.95
2017-07-01T07:33:43.740Z,998.97
2017-07-01T07:34:43.719Z,998.98
2017-07-01T07:35:43.709Z,998.99
2017-07-01T07:36:43.690Z,998.95
2017-07-01T07:37:43.679Z,998.96
2017-07-01T07:38:43.669Z,998.95
2017-07-01T07:39:43.642Z,998.97
2017-07-01T07:40:43.639Z,998.97
2017-07-01T07:41:43.613Z,998.94
2017-07-01T07:42:43.597Z,999
2017-07-01T07:43:43.582Z,998.96
2017-07-01T07:44:43.565Z,998.99
2017-07-01T07:45:43.549Z,999.01
2017-07-01T07:46:43.533Z,999.06
2017-07-01T07:47:43.520Z,999.05
2017-07-01T07:48:43.509Z,999.02
2017-07-01T07:49:43.489Z,999.08
2017-07-01T07:50:43.470Z,999.08
2017-07-01T07:51:43.460Z,999.06
2017-07-01T07:52:43.450Z,999.11
2017-07-01T07:53:43.431Z,999.08
2017-07-01T07:54:43.411Z,999.05
2017-07-01T07:55:43.403Z,999.05
2017-07-01T07:56:43.379Z,999.05
2017-07-01T07:57:43.370Z,999.02
2017-07-01T07:58:43.354Z,999.03
2017-07-01T07:59:43.341Z,999
2017-07-01T08:00:43.318Z,999.04
2017-07-01T08:01:43.311Z,999.1
2017-07-01T08:02:43.291Z,999.05
2017-07-01T08:03:43.277Z,999.05
2017-07-01T08:04:43.256Z,999.07
2017-07-01T08:05:43.250Z,999.08
2017-07-01T08:06:43.233Z,999.11
2017-07-01T08:07:43.210Z,999.11
2017-07-01T08:08:43.197Z,999.11
2017-07-01T08:09:43.191Z,999.11
2017-07-01T08:10:43.169Z,999.14
2017-07-01T08:11:43.150Z,999.15
2017-07-01T08:12:43.141Z,999.09
2017-07-01T08:13:43.118Z,999.21
2017-07-01T08:14:43.111Z,999.2
2017-07-01T08:15:43.093Z,999.21
2017-07-01T08:16:43.076Z,999.21
2017-07-01T08:17:43.059Z,999.18
2017-07-01T08:18:43.046Z,999.22
2017-07-01T08:19:43.034Z,999.21
2017-07-01T08:20:43.022Z,999.23
2017-07-01T08:21:43.009Z,999.22
2017-07-01T08:22:42.989Z,999.23
2017-07-01T08:23:42.973Z,999.27
2017-07-01T08:24:42.959Z,999.31
2017-07-01T08:25:42.949Z,999.29
2017-07-01T08:26:42.930Z,999.24
2017-07-01T08:27:42.913Z,999.24
2017-07-01T08:28:42.898Z,999.28
2017-07-01T08:29:42.886Z,999.29
2017-07-01T08:30:42.870Z,999.28
2017-07-01T08:31:42.856Z,999.3
2017-07-01T08:32:42.841Z,999.3
2017-07-01T08:33:42.826Z,999.35
2017-07-01T08:34:42.808Z,999.37
2017-07-01T08:35:42.793Z,999.37
2017-07-01T08:36:42.780Z,999.41
2017-07-01T08:37:42.765Z,999.43
2017-07-01T08:38:42.760Z,999.41
2017-07-01T08:39:42.733Z,999.42
2017-07-01T08:40:42.722Z,999.45
2017-07-01T08:41:42.709Z,999.45
2017-07-01T08:42:42.697Z,999.46
2017-07-01T08:43:42.688Z,999.47
2017-07-01T08:44:42.659Z,999.53
2017-07-01T08:45:42.649Z,999.51
2017-07-01T08:46:42.628Z,999.52
2017-07-01T08:47:42.619Z,999.52
2017-07-01T08:48:42.604Z,999.51
2017-07-01T08:49:42.591Z,999.51
2017-07-01T08:50:42.575Z,999.53
2017-07-01T08:51:42.593Z,999.51
2017-07-01T08:52:42.542Z,999.52
2017-07-01T08:53:42.529Z,999.52
2017-07-01T08:54:42.515Z,999.53
2017-07-01T08:55:42.500Z,999.56
2017-07-01T08:56:42.487Z,999.6
2017-07-01T08:57:42.467Z,999.58
2017-07-01T08:58:42.459Z,999.59
2017-07-01T08:59:42.439Z,999.58
2017-07-01T09:00:42.430Z,999.54
2017-07-01T09:01:42.418Z,999.65
2017-07-01T09:02:42.400Z,999.6
2017-07-01T09:03:42.381Z,999.54
2017-07-01T09:04:42.369Z,999.58
2017-07-01T09:05:42.348Z,999.6
2017-07-01T09:06:42.338Z,999.63
2017-07-01T09:07:42.329Z,999.65
2017-07-01T09:08:42.307Z,999.64
2017-07-01T09:09:42.289Z,999.65
2017-07-01T09:10:42.280Z,999.69
2017-07-01T09:11:42.261Z,999.65
2017-07-01T09:12:42.255Z,999.7
2017-07-01T09:13:42.228Z,999.68
2017-07-01T09:14:42.224Z,999.7
2017-07-01T09:15:42.200Z,999.71
2017-07-01T09:16:42.199Z,999.74
2017-07-01T09:17:42.169Z,999.74
2017-07-01T09:18:42.155Z,999.73
2017-07-01T09:19:42.139Z,999.74
2017-07-01T09:20:42.129Z,999.76
2017-07-01T09:21:42.108Z,999.78
2017-07-01T09:22:42.100Z,999.75
2017-07-01T09:23:42.082Z,999.78
2017-07-01T09:24:42.068Z,999.83
2017-07-01T09:25:42.048Z,999.82
2017-07-01T09:26:42.046Z,999.85
2017-07-01T09:27:42.019Z,999.81
2017-07-01T09:28:42.005Z,999.82
2017-07-01T09:29:41.992Z,999.84
2017-07-01T09:30:41.974Z,999.85
2017-07-01T09:31:41.957Z,999.9
2017-07-01T09:32:41.945Z,999.89
2017-07-01T09:33:41.931Z,999.89
2017-07-01T09:34:41.916Z,999.9
2017-07-01T09:35:41.903Z,999.93
2017-07-01T09:36:41.886Z,999.9
2017-07-01T09:37:41.877Z,999.99
2017-07-01T09:38:41.865Z,1000.01
2017-07-01T09:39:41.875Z,1000.01
2017-07-01T09:40:41.825Z,1000.01
2017-07-01T09:41:41.820Z,999.98
2017-07-01T09:42:41.800Z,1000
2017-07-01T09:43:41.784Z,1000.05
2017-07-01T09:44:41.776Z,1000.05
2017-07-01T09:45:41.754Z,1000.08
2017-07-01T09:46:41.737Z,1000.14
2017-07-01T09:47:41.731Z,1000.12
2017-07-01T09:48:41.705Z,1000.15
2017-07-01T09:49:41.698Z,1000.12
2017-07-01T09:50:41.672Z,1000.13
2017-07-01T09:51:41.668Z,1000.11
2017-07-01T09:52:41.653Z,1000.14
2017-07-01T09:53:41.631Z,1000.19
2017-07-01T09:54:41.618Z,1000.19
2017-07-01T09:55:41.605Z,1000.15
2017-07-01T09:56:41.587Z,1000.19
2017-07-01T09:57:41.569Z,1000.18
2017-07-01T09:58:41.558Z,1000.22
2017-07-01T09:59:41.546Z,1000.23
2017-07-01T10:00:41.526Z,1000.3
2017-07-01T10:01:41.510Z,1000.27
2017-07-01T10:02:41.500Z,1000.3
2017-07-01T10:03:41.485Z,1000.27
2017-07-01T10:04:41.471Z,1000.29
2017-07-01T10:05:41.453Z,1000.29
2017-07-01T10:06:41.437Z,1000.31
2017-07-01T10:07:41.425Z,1000.32
2017-07-01T10:08:41.409Z,1000.35
2017-07-01T10:09:41.399Z,1000.33
2017-07-01T10:10:41.380Z,1000.34
2017-07-01T10:11:41.370Z,1000.3
2017-07-01T10:12:41.349Z,1000.37
2017-07-01T10:13:41.336Z,1000.35
2017-07-01T10:14:41.330Z,1000.35
2017-07-01T10:15:41.312Z,1000.35
2017-07-01T10:16:41.296Z,1000.41
2017-07-01T10:17:41.284Z,1000.4
2017-07-01T10:18:41.264Z,1000.43
2017-07-01T10:19:41.252Z,1000.42
2017-07-01T10:20:41.242Z,1000.43
2017-07-01T10:21:41.223Z,1000.45
2017-07-01T10:22:41.212Z,1000.44
2017-07-01T10:23:41.196Z,1000.47
2017-07-01T10:24:41.189Z,1000.5
2017-07-01T10:25:41.173Z,1000.57
2017-07-01T10:26:41.149Z,1000.52
2017-07-01T10:27:41.140Z,1000.55
2017-07-01T10:28:41.122Z,1000.59
2017-07-01T10:29:41.116Z,1000.6
2017-07-01T10:30:41.102Z,1000.57
2017-07-01T10:31:41.090Z,1000.6
2017-07-01T10:32:41.073Z,1000.6
2017-07-01T10:33:41.055Z,1000.61
2017-07-01T10:34:41.040Z,1000.62
2017-07-01T10:35:41.032Z,1000.62
2017-07-01T10:36:41.010Z,1000.65
2017-07-01T10:37:40.999Z,1000.65
2017-07-01T10:38:40.986Z,1000.63
2017-07-01T10:39:40.973Z,1000.65
2017-07-01T10:40:40.957Z,1000.63
2017-07-01T10:41:40.942Z,1000.71
2017-07-01T10:42:40.933Z,1000.69
2017-07-01T10:43:40.921Z,1000.69
2017-07-01T10:44:40.901Z,1000.7
2017-07-01T10:45:40.882Z,1000.72
2017-07-01T10:46:40.873Z,1000.73
2017-07-01T10:47:40.861Z,1000.8
2017-07-01T10:48:40.842Z,1000.76
2017-07-01T10:49:40.829Z,1000.83
2017-07-01T10:50:40.813Z,1000.82
2017-07-01T10:51:40.804Z,1000.86
2017-07-01T10:52:40.787Z,1000.85
2017-07-01T10:53:40.785Z,1000.88
2017-07-01T10:54:40.759Z,1000.86
2017-07-01T10:55:40.742Z,1000.86
2017-07-01T10:56:40.731Z,1000.89
2017-07-01T10:57:40.712Z,1000.92
2017-07-01T10:58:40.701Z,1000.92
2017-07-01T10:59:40.682Z,1000.92
2017-07-01T11:00:40.669Z,1000.92
2017-07-01T11:01:40.652Z,1000.92
2017-07-01T11:02:40.651Z,1000.98
2017-07-01T11:03:40.624Z,1000.95
2017-07-01T11:04:40.610Z,1000.98
2017-07-01T11:05:40.596Z,1000.94
2017-07-01T11:06:40.580Z,1000.99
2017-07-01T11:07:40.574Z,1000.98
2017-07-01T11:08:40.552Z,1000.96
2017-07-01T11:09:40.544Z,1000.95
2017-07-01T11:10:40.520Z,1000.98
2017-07-01T11:11:40.513Z,1000.97
2017-07-01T11:12:40.493Z,1000.98
2017-07-01T11:13:40.475Z,1000.95
2017-07-01T11:14:40.481Z,1001.05
2017-07-01T11:15:40.451Z,1001.03
2017-07-01T11:16:40.442Z,1001.07
2017-07-01T11:17:40.424Z,1001.03
2017-07-01T11:18:40.411Z,1001.04
2017-07-01T11:19:40.390Z,1001.03
2017-07-01T11:20:40.378Z,1001.04
2017-07-01T11:21:40.362Z,1001.03
2017-07-01T11:22:40.351Z,1001.05
2017-07-01T11:23:40.332Z,1001.03
2017-07-01T11:24:40.320Z,1001.05
2017-07-01T11:25:40.309Z,1001.09
2017-07-01T11:26:40.301Z,1001.11
2017-07-01T11:27:40.283Z,1001.13
2017-07-01T11:28:40.262Z,1001.16
2017-07-01T11:29:40.247Z,1001.14
2017-07-01T11:30:40.230Z,1001.14
2017-07-01T11:31:40.223Z,1001.16
2017-07-01T11:32:40.201Z,1001.14
2017-07-01T11:33:40.188Z,1001.18
2017-07-01T11:34:40.173Z,1001.2
2017-07-01T11:35:40.161Z,1001.2
2017-07-01T11:36:40.150Z,1001.19
2017-07-01T11:37:40.131Z,1001.23
2017-07-01T11:38:40.119Z,1001.27
2017-07-01T11:39:40.111Z,1001.25
2017-07-01T11:40:40.099Z,1001.32
2017-07-01T11:41:40.076Z,1001.3
2017-07-01T11:42:40.062Z,1001.34
2017-07-01T11:43:40.048Z,1001.34
2017-07-01T11:44:40.041Z,1001.39
2017-07-01T11:45:40.022Z,1001.38
2017-07-01T11:46:40.014Z,1001.38
2017-07-01T11:47:39.995Z,1001.38
2017-07-01T11:48:39.978Z,1001.38
2017-07-01T11:49:39.972Z,1001.38
2017-07-01T11:50:39.953Z,1001.38
2017-07-01T11:51:39.942Z,1001.37
2017-07-01T11:52:39.932Z,1001.39
2017-07-01T11:53:39.920Z,1001.37
2017-07-01T11:54:39.900Z,1001.36
2017-07-01T11:55:39.882Z,1001.36
2017-07-01T11:56:39.870Z,1001.37
2017-07-01T11:57:39.856Z,1001.41
2017-07-01T11:58:39.843Z,1001.43
2017-07-01T11:59:39.835Z,1001.41
2017-07-01T12:00:39.821Z,1001.44
2017-07-01T12:01:39.804Z,1001.44
2017-07-01T12:02:39.793Z,1001.46
2017-07-01T12:03:39.772Z,1001.45
2017-07-01T12:04:39.763Z,1001.48
2017-07-01T12:05:39.747Z,1001.52
2017-07-01T12:06:39.734Z,1001.49
2017-07-01T12:07:39.722Z,1001.51
2017-07-01T12:08:39.703Z,1001.54
2017-07-01T12:09:39.688Z,1001.54
2017-07-01T12:10:39.687Z,1001.56
2017-07-01T12:11:39.671Z,1001.61
2017-07-01T12:12:39.651Z,1001.55
2017-07-01T12:13:39.633Z,1001.56
2017-07-01T12:14:39.635Z,1001.58
2017-07-01T12:15:39.613Z,1001.58
2017-07-01T12:16:39.605Z,1001.58
2017-07-01T12:17:39.585Z,1001.61
2017-07-01T12:18:39.584Z,1001.64
2017-07-01T12:19:39.564Z,1001.61
2017-07-01T12:20:39.543Z,1001.61
2017-07-01T12:21:39.528Z,1001.63
2017-07-01T12:22:39.523Z,1001.64
2017-07-01T12:23:39.502Z,1001.64
2017-07-01T12:24:39.505Z,1001.64
2017-07-01T12:25:39.474Z,1001.69